createdAt,value
2022-10-19T00:01:26.305Z,5.93
2022-10-19T00:04:29.085Z,4.95
2022-10-19T00:07:31.478Z,5.47
2022-10-19T00:10:34.261Z,5.40
2022-10-19T00:13:36.992Z,5.37
2022-10-19T00:16:39.152Z,6.10
2022-10-19T00:19:41.287Z,6.93
2022-10-19T00:22:43.463Z,6.93
2022-10-19T00:25:56.009Z,7.18
2022-10-19T00:28:58.437Z,7.57
2022-10-19T00:32:00.589Z,6.72
2022-10-19T00:35:03.743Z,6.28
2022-10-19T00:38:05.861Z,6.75
2022-10-19T00:41:08.525Z,6.85
2022-10-19T00:44:13.754Z,7.03
2022-10-19T00:47:16.642Z,6.10
2022-10-19T00:50:18.887Z,5.72
2022-10-19T00:53:21.400Z,6.10
2022-10-19T00:56:23.707Z,5.75
2022-10-19T00:59:27.132Z,6.28
2022-10-19T01:02:29.357Z,5.87
2022-10-19T01:05:32.974Z,6.18
2022-10-19T01:08:35.118Z,5.72
2022-10-19T01:11:43.082Z,6.20
2022-10-19T01:15:06.591Z,6.10
2022-10-19T01:18:40.352Z,5.62
2022-10-19T01:21:50.996Z,5.93
2022-10-19T01:25:15.073Z,5.97
2022-10-19T01:28:20.080Z,5.43
2022-10-19T01:31:44.618Z,6.40
2022-10-19T01:34:52.196Z,5.25
2022-10-19T01:38:12.746Z,5.40
2022-10-19T01:41:23.778Z,5.55
2022-10-19T01:44:40.044Z,5.75
2022-10-19T01:47:59.547Z,5.47
2022-10-19T01:51:12.819Z,5.45
2022-10-19T01:54:16.001Z,5.22
2022-10-19T01:57:23.981Z,5.37
2022-10-19T02:00:27.024Z,5.00
2022-10-19T02:03:29.544Z,5.20
2022-10-19T02:06:31.742Z,4.47
2022-10-19T02:09:33.939Z,4.78
2022-10-19T02:12:37.015Z,5.65
2022-10-19T02:15:41.542Z,5.05
2022-10-19T02:18:46.320Z,5.22
2022-10-19T02:21:48.931Z,5.82
2022-10-19T02:24:51.097Z,6.05
2022-10-19T02:27:53.249Z,4.37
2022-10-19T02:30:55.863Z,4.75
2022-10-19T02:33:58.329Z,5.30
2022-10-19T02:37:00.519Z,5.07
2022-10-19T02:40:03.574Z,5.35
2022-10-19T02:43:10.672Z,5.82
2022-10-19T02:46:38.060Z,4.87
2022-10-19T02:49:41.190Z,5.72
2022-10-19T02:52:43.339Z,4.65
2022-10-19T02:55:47.990Z,4.78
2022-10-19T02:58:50.123Z,5.10
2022-10-19T03:01:52.712Z,5.62
2022-10-19T03:04:54.825Z,4.85
2022-10-19T03:07:57.033Z,5.87
2022-10-19T03:10:59.297Z,5.60
2022-10-19T03:14:01.675Z,5.50
2022-10-19T03:17:04.266Z,5.03
2022-10-19T03:20:06.962Z,5.57
2022-10-19T03:23:09.133Z,5.62
2022-10-19T03:26:14.476Z,4.97
2022-10-19T03:29:16.618Z,6.00
2022-10-19T03:32:18.764Z,5.35
2022-10-19T03:35:20.931Z,5.85
2022-10-19T03:38:23.073Z,5.78
2022-10-19T03:41:27.674Z,5.57
2022-10-19T03:44:29.815Z,6.05
2022-10-19T03:47:32.239Z,5.93
2022-10-19T03:50:34.700Z,6.35
2022-10-19T03:53:37.581Z,6.25
2022-10-19T03:56:39.723Z,5.47
2022-10-19T03:59:41.842Z,6.30
2022-10-19T04:02:44.036Z,6.05
2022-10-19T04:05:46.150Z,5.50
2022-10-19T04:08:49.206Z,6.07
2022-10-19T04:11:51.459Z,5.53
2022-10-19T04:14:57.272Z,6.78
2022-10-19T04:17:59.765Z,6.50
2022-10-19T04:21:04.684Z,5.95
2022-10-19T04:24:17.665Z,6.78
2022-10-19T04:27:19.850Z,6.82
2022-10-19T04:30:21.986Z,5.57
2022-10-19T04:33:24.150Z,6.28
2022-10-19T04:36:26.415Z,5.55
2022-10-19T04:39:28.536Z,6.37
2022-10-19T04:42:30.745Z,6.53
2022-10-19T04:45:35.444Z,6.85
2022-10-19T04:48:38.802Z,6.45
2022-10-19T04:51:40.942Z,5.55
2022-10-19T04:54:43.062Z,5.15
2022-10-19T04:57:45.216Z,7.10
2022-10-19T05:00:47.456Z,6.53
2022-10-19T05:07:04.153Z,5.97
2022-10-19T05:10:08.841Z,5.82
2022-10-19T05:13:10.969Z,6.03
2022-10-19T05:16:19.045Z,5.97
2022-10-19T05:19:21.352Z,6.00
2022-10-19T05:22:23.659Z,6.80
2022-10-19T05:25:25.837Z,7.05
2022-10-19T05:28:28.529Z,5.47
2022-10-19T05:31:32.694Z,6.97
2022-10-19T05:34:34.841Z,5.82
2022-10-19T05:37:37.205Z,6.43
2022-10-19T05:40:44.943Z,6.15
2022-10-19T05:43:47.940Z,7.10
2022-10-19T05:46:51.474Z,5.40
2022-10-19T05:49:53.595Z,5.85
2022-10-19T05:52:55.679Z,6.93
2022-10-19T05:55:57.873Z,6.30
2022-10-19T05:59:02.132Z,5.47
2022-10-19T06:02:04.326Z,5.75
2022-10-19T06:05:07.167Z,6.93
2022-10-19T06:08:09.276Z,7.20
2022-10-19T06:11:14.706Z,6.15
2022-10-19T06:14:16.882Z,5.90
2022-10-19T06:17:19.014Z,5.65
2022-10-19T06:20:21.148Z,5.68
2022-10-19T06:23:23.362Z,7.55
2022-10-19T06:26:26.534Z,5.75
2022-10-19T06:29:28.656Z,4.70
2022-10-19T06:32:30.899Z,4.85
2022-10-19T06:35:33.070Z,4.80
2022-10-19T06:38:35.269Z,4.62
2022-10-19T06:41:37.470Z,3.62
2022-10-19T06:44:39.579Z,3.85
2022-10-19T06:47:41.830Z,5.47
2022-10-19T06:50:44.023Z,4.53
2022-10-19T06:53:46.244Z,4.53
2022-10-19T06:59:55.660Z,4.18
2022-10-19T07:02:59.221Z,4.40
2022-10-19T07:06:03.682Z,4.60
2022-10-19T07:09:06.252Z,4.07
2022-10-19T07:12:10.772Z,3.95
2022-10-19T07:15:12.886Z,4.10
2022-10-19T07:18:15.326Z,4.05
2022-10-19T07:21:18.281Z,4.60
2022-10-19T07:24:20.455Z,3.47
2022-10-19T07:27:22.599Z,3.92
2022-10-19T07:30:24.806Z,3.75
2022-10-19T07:33:27.525Z,3.58
2022-10-19T07:36:31.464Z,3.72
2022-10-19T07:39:33.621Z,3.65
2022-10-19T07:42:37.703Z,3.10
2022-10-19T07:45:39.824Z,3.22
2022-10-19T07:48:42.642Z,3.62
2022-10-19T07:51:45.645Z,3.28
2022-10-19T07:54:49.523Z,3.33
2022-10-19T07:57:51.680Z,2.85
2022-10-19T08:01:00.367Z,2.83
2022-10-19T08:07:24.667Z,3.10
2022-10-19T08:10:26.856Z,3.20
2022-10-19T08:13:29.038Z,2.97
2022-10-19T08:16:38.839Z,2.85
2022-10-19T08:19:43.504Z,2.37
2022-10-19T08:22:46.842Z,2.87
2022-10-19T08:25:49.783Z,2.95
2022-10-19T08:28:51.937Z,3.12
2022-10-19T08:31:54.422Z,4.53
2022-10-19T08:34:56.661Z,2.65
2022-10-19T08:37:59.108Z,2.92
2022-10-19T08:41:15.229Z,2.67
2022-10-19T08:44:41.769Z,2.97
2022-10-19T08:48:11.020Z,2.50
2022-10-19T08:51:13.934Z,2.40
2022-10-19T08:54:17.757Z,2.90
2022-10-19T08:57:38.057Z,3.45
2022-10-19T09:00:50.187Z,2.03
2022-10-19T09:04:30.699Z,2.50
2022-10-19T09:07:44.995Z,2.55
2022-10-19T09:10:50.556Z,2.33
2022-10-19T09:14:05.098Z,2.70
2022-10-19T09:17:13.158Z,2.17
2022-10-19T09:20:19.702Z,2.45
2022-10-19T09:23:34.678Z,2.30
2022-10-19T09:26:54.226Z,2.20
2022-10-19T09:30:03.843Z,2.10
2022-10-19T09:33:06.652Z,2.03
2022-10-19T09:36:14.999Z,2.20
2022-10-19T09:39:29.555Z,2.33
2022-10-19T09:42:34.305Z,1.98
2022-10-19T09:45:39.341Z,1.98
2022-10-19T09:48:53.375Z,2.58
2022-10-19T09:51:55.498Z,1.90
2022-10-19T09:55:07.425Z,1.80
2022-10-19T09:58:18.188Z,2.45
2022-10-19T10:01:46.821Z,1.80
2022-10-19T10:04:57.491Z,1.65
2022-10-19T10:07:59.835Z,2.25
2022-10-19T10:11:10.781Z,2.50
2022-10-19T10:14:15.854Z,2.05
2022-10-19T10:17:22.927Z,1.50
2022-10-19T10:20:28.473Z,1.80
2022-10-19T10:23:34.018Z,2.00
2022-10-19T10:26:50.346Z,1.95
2022-10-19T10:33:13.550Z,1.85
2022-10-19T10:36:27.837Z,1.80
2022-10-19T10:39:30.605Z,2.20
2022-10-19T10:42:37.465Z,1.87
2022-10-19T10:45:47.779Z,1.73
2022-10-19T10:48:58.732Z,1.92
2022-10-19T10:52:05.389Z,1.60
2022-10-19T10:55:10.303Z,1.85
2022-10-19T10:58:19.912Z,1.50
2022-10-19T11:01:24.020Z,1.70
2022-10-19T11:04:41.315Z,1.30
2022-10-19T11:07:46.809Z,1.05
2022-10-19T11:11:07.787Z,1.00
2022-10-19T11:14:28.356Z,1.70
2022-10-19T11:17:33.448Z,0.90
2022-10-19T11:20:37.173Z,0.90
2022-10-19T11:23:51.775Z,0.80
2022-10-19T11:26:59.905Z,0.90
2022-10-19T11:30:17.697Z,0.80
2022-10-19T11:34:02.516Z,0.90
2022-10-19T11:37:13.737Z,0.95
2022-10-19T11:40:59.680Z,0.75
2022-10-19T11:44:19.079Z,0.80
2022-10-19T11:47:42.091Z,0.95
2022-10-19T11:50:58.932Z,0.73
2022-10-19T11:54:56.455Z,1.23
2022-10-19T11:58:45.420Z,0.85
2022-10-19T12:02:06.093Z,0.70
2022-10-19T12:05:13.704Z,1.00
2022-10-19T12:11:45.808Z,1.08
2022-10-19T12:14:52.065Z,1.00
2022-10-19T12:17:57.834Z,0.95
2022-10-19T12:21:02.788Z,1.10
2022-10-19T12:24:14.971Z,0.95
2022-10-19T12:27:18.708Z,0.75
2022-10-19T12:30:23.174Z,1.10
2022-10-19T12:33:31.630Z,1.08
2022-10-19T12:36:33.703Z,0.90
2022-10-19T12:39:35.979Z,0.90
2022-10-19T12:42:51.996Z,1.20
2022-10-19T12:46:03.572Z,1.10
2022-10-19T12:49:30.477Z,1.10
2022-10-19T12:52:44.706Z,1.10
2022-10-19T12:55:47.332Z,1.20
2022-10-19T12:58:53.171Z,0.90
2022-10-19T13:01:56.698Z,1.25
2022-10-19T13:04:59.233Z,0.90
2022-10-19T13:08:04.796Z,1.20
2022-10-19T13:11:14.694Z,0.90
2022-10-19T13:14:19.608Z,0.95
2022-10-19T13:17:34.406Z,1.02
2022-10-19T13:23:44.966Z,1.10
2022-10-19T13:26:47.117Z,1.00
2022-10-19T13:29:49.518Z,1.15
2022-10-19T13:32:52.193Z,0.90
2022-10-19T13:36:00.532Z,1.50
2022-10-19T13:39:06.042Z,1.40
2022-10-19T13:42:24.035Z,0.85
2022-10-19T13:45:26.896Z,1.02
2022-10-19T13:48:37.561Z,1.10
2022-10-19T13:51:51.727Z,1.08
2022-10-19T13:55:18.576Z,1.02
2022-10-19T13:58:48.260Z,1.40
2022-10-19T14:01:53.048Z,1.12
2022-10-19T14:05:24.680Z,1.70
2022-10-19T14:09:11.736Z,1.40
2022-10-19T14:12:23.919Z,1.25
2022-10-19T14:15:28.954Z,1.08
2022-10-19T14:18:33.621Z,1.25
2022-10-19T14:21:37.022Z,2.00
2022-10-19T14:24:39.170Z,1.90
2022-10-19T14:27:41.325Z,1.40
2022-10-19T14:30:43.857Z,1.30
2022-10-19T14:33:47.712Z,1.33
2022-10-19T14:36:50.663Z,1.40
2022-10-19T14:39:59.848Z,1.40
2022-10-19T14:43:20.365Z,1.40
2022-10-19T14:46:26.575Z,1.60
2022-10-19T14:49:28.885Z,2.03
2022-10-19T14:52:37.761Z,1.92
2022-10-19T14:55:41.050Z,1.50
2022-10-19T14:59:18.579Z,1.75
2022-10-19T15:02:28.244Z,1.40
2022-10-19T15:05:33.748Z,1.90
2022-10-19T15:08:39.021Z,1.23
2022-10-19T15:11:44.175Z,1.50
2022-10-19T15:14:47.215Z,1.60
2022-10-19T15:18:00.181Z,1.48
2022-10-19T15:21:12.873Z,3.10
2022-10-19T15:24:35.937Z,2.10
2022-10-19T15:27:50.035Z,2.17
2022-10-19T15:31:00.600Z,2.15
2022-10-19T15:34:03.790Z,2.23
2022-10-19T15:37:08.316Z,1.30
2022-10-19T15:40:21.982Z,1.77
2022-10-19T15:43:30.541Z,1.67
2022-10-19T15:46:48.946Z,1.83
2022-10-19T15:49:55.777Z,2.20
2022-10-19T15:52:59.817Z,2.03
2022-10-19T15:59:15.414Z,4.87
2022-10-19T16:02:17.538Z,2.90
2022-10-19T16:05:19.816Z,1.95
2022-10-19T16:08:21.937Z,3.28
2022-10-19T16:11:25.122Z,5.32
2022-10-19T16:14:28.408Z,2.67
2022-10-19T16:17:30.638Z,2.75
2022-10-19T16:20:32.824Z,2.35
2022-10-19T16:23:41.092Z,1.80
2022-10-19T16:26:44.582Z,2.22
2022-10-19T16:29:46.708Z,2.72
2022-10-19T16:32:49.679Z,2.30
2022-10-19T16:35:51.857Z,2.33
2022-10-19T16:38:54.117Z,3.60
2022-10-19T16:41:56.322Z,7.57
2022-10-19T16:44:58.493Z,9.63
2022-10-19T16:48:00.657Z,9.98
2022-10-19T16:51:05.549Z,9.55
2022-10-19T16:54:12.326Z,7.28
2022-10-19T16:57:14.717Z,4.40
2022-10-19T17:00:16.895Z,2.85
2022-10-19T17:03:19.059Z,2.70
2022-10-19T17:06:21.677Z,3.53
2022-10-19T17:09:42.271Z,2.45
2022-10-19T17:12:44.873Z,2.05
2022-10-19T17:15:47.129Z,1.98
2022-10-19T17:18:49.934Z,2.37
2022-10-19T17:21:55.402Z,1.90
2022-10-19T17:24:57.878Z,3.62
2022-10-19T17:28:00.227Z,2.35
2022-10-19T17:31:13.820Z,2.00
2022-10-19T17:34:17.646Z,2.05
2022-10-19T17:37:20.489Z,1.58
2022-10-19T17:40:22.926Z,2.08
2022-10-19T17:43:25.353Z,2.00
2022-10-19T17:46:30.571Z,1.85
2022-10-19T17:49:32.955Z,1.70
2022-10-19T17:52:35.364Z,2.00
2022-10-19T17:55:37.741Z,2.85
2022-10-19T17:58:40.131Z,7.53
2022-10-19T18:01:42.878Z,7.50
2022-10-19T18:04:45.321Z,2.15
2022-10-19T18:07:49.220Z,2.22
2022-10-19T18:11:12.485Z,1.95
2022-10-19T18:14:16.665Z,2.80
2022-10-19T18:17:21.620Z,2.17
2022-10-19T18:20:25.258Z,2.10
2022-10-19T18:23:27.741Z,2.35
2022-10-19T18:26:32.670Z,2.42
2022-10-19T18:29:35.434Z,2.50
2022-10-19T18:32:38.027Z,2.00
2022-10-19T18:35:40.988Z,3.10
2022-10-19T18:38:43.966Z,3.15
2022-10-19T18:41:48.292Z,5.60
2022-10-19T18:44:50.710Z,7.50
2022-10-19T18:47:53.791Z,5.18
2022-10-19T18:50:57.479Z,2.90
2022-10-19T18:53:59.930Z,2.20
2022-10-19T18:57:02.331Z,2.58
2022-10-19T19:00:05.926Z,2.78
2022-10-19T19:03:08.682Z,2.20
2022-10-19T19:06:12.907Z,1.87
2022-10-19T19:09:15.340Z,2.55
2022-10-19T19:12:17.873Z,1.85
2022-10-19T19:15:20.417Z,2.40
2022-10-19T19:18:23.222Z,2.62
2022-10-19T19:21:27.321Z,2.70
2022-10-19T19:24:32.133Z,4.87
2022-10-19T19:27:34.933Z,2.33
2022-10-19T19:30:44.513Z,2.00
2022-10-19T19:33:47.520Z,2.15
2022-10-19T19:36:49.929Z,2.85
2022-10-19T19:39:52.400Z,2.85
2022-10-19T19:42:55.070Z,2.67
2022-10-19T19:46:04.756Z,3.60
2022-10-19T19:49:10.732Z,3.60
2022-10-19T19:52:13.249Z,5.15
2022-10-19T19:55:16.546Z,5.50
2022-10-19T19:58:20.047Z,6.47
2022-10-19T20:01:22.730Z,7.55
2022-10-19T20:04:25.223Z,4.43
2022-10-19T20:07:27.401Z,5.07
2022-10-19T20:10:29.881Z,5.07
2022-10-19T20:13:32.534Z,4.87
2022-10-19T20:16:35.005Z,5.45
2022-10-19T20:19:37.169Z,4.57
2022-10-19T20:22:39.763Z,4.95
2022-10-19T20:25:42.069Z,4.35
2022-10-19T20:28:44.502Z,3.53
2022-10-19T20:31:47.844Z,4.28
2022-10-19T20:34:52.135Z,4.45
2022-10-19T20:37:57.802Z,4.30
2022-10-19T20:41:06.937Z,3.05
2022-10-19T20:44:10.522Z,2.30
2022-10-19T20:47:12.669Z,3.08
2022-10-19T20:50:17.014Z,3.37
2022-10-19T20:53:21.466Z,3.85
2022-10-19T20:56:26.520Z,4.00
2022-10-19T20:59:28.987Z,3.80
2022-10-19T21:02:31.143Z,3.85
2022-10-19T21:05:33.287Z,3.60
2022-10-19T21:08:35.949Z,2.83
2022-10-19T21:11:39.758Z,4.30
2022-10-19T21:14:43.064Z,3.92
2022-10-19T21:17:47.441Z,4.65
2022-10-19T21:20:49.550Z,6.00
2022-10-19T21:23:55.204Z,7.95
2022-10-19T21:26:57.343Z,6.85
2022-10-19T21:29:59.482Z,6.18
2022-10-19T21:33:01.661Z,3.72
2022-10-19T21:36:05.735Z,2.90
2022-10-19T21:39:07.922Z,3.55
2022-10-19T21:42:10.041Z,2.92
2022-10-19T21:45:29.434Z,3.22
2022-10-19T21:48:33.736Z,3.05
2022-10-19T21:51:48.353Z,3.12
2022-10-19T21:54:50.528Z,4.00
2022-10-19T21:57:52.697Z,3.10
2022-10-19T22:00:54.884Z,3.20
2022-10-19T22:04:02.281Z,3.17
2022-10-19T22:07:05.243Z,4.12
2022-10-19T22:10:07.651Z,4.43
2022-10-19T22:13:09.796Z,4.03
2022-10-19T22:16:14.970Z,4.12
2022-10-19T22:19:17.681Z,3.65
2022-10-19T22:22:19.867Z,3.17
2022-10-19T22:25:22.022Z,3.90
2022-10-19T22:28:24.222Z,3.20
2022-10-19T22:31:28.043Z,3.72
2022-10-19T22:34:30.467Z,3.03
2022-10-19T22:37:34.505Z,3.05
2022-10-19T22:40:36.622Z,3.03
2022-10-19T22:43:38.770Z,2.15
2022-10-19T22:46:40.875Z,2.42
2022-10-19T22:49:43.006Z,2.17
2022-10-19T22:52:45.136Z,2.12
2022-10-19T22:55:47.459Z,1.95
2022-10-19T22:58:49.658Z,2.20
2022-10-19T23:01:51.884Z,2.40
2022-10-19T23:04:54.087Z,2.90
2022-10-19T23:07:56.244Z,2.87
2022-10-19T23:10:58.422Z,3.20
2022-10-19T23:14:00.579Z,3.12
2022-10-19T23:17:02.771Z,2.97
2022-10-19T23:20:05.346Z,3.10
2022-10-19T23:23:07.522Z,3.17
2022-10-19T23:26:15.859Z,2.55
2022-10-19T23:29:18.001Z,2.80
2022-10-19T23:32:20.154Z,2.37
2022-10-19T23:35:22.305Z,3.12
2022-10-19T23:38:24.443Z,2.47
2022-10-19T23:41:27.053Z,2.85
2022-10-19T23:44:29.250Z,2.05
2022-10-19T23:47:31.368Z,2.05
2022-10-19T23:50:33.500Z,3.25
2022-10-19T23:53:40.749Z,2.17
2022-10-19T23:56:43.597Z,2.33
2022-10-19T23:59:46.181Z,2.30
